Aérodrome :
LOGIN :

S'inscrire | Disclaimer

   EN    FR    IT 

 










Légende :    VFR   VFR Marginal   IFR   IFR Intensif   IFR Très Intensif
Visi : 
Plafond : 
>= 8 km
>= 3000ft
5 à 8 km
1000 à 3000 ft
1500m à 5 km
500 à 1000 ft
800 à 1500m
200 à 500 ft
< 800m
< 200 ft
Symboles :   Orages  Brouillard  Fortes neiges  Fortes précipitations  Vent > 20 kt
SIGMETs :   Divers  Orages  Givrage  Turbulence  Onde Orograph.  Cendres Volcan.






- Altitude de l'aérodrome : 776 ft
- Code IATA : RMS


ETAR - Ramstein Air Base

DERNIER METAR :
  • 280455Z 00000KT 0800 FZFG CLR M03/M04 A3011 RMK AO2A SLP207 T10311039 $

METARs EXPIRÉS :
  • 280355Z 00000KT 5000 BR CLR M02/M03 A3009 RMK AO2A SLP199 T10241032 $
  • 280330Z 00000KT 3200 BR CLR M02/M03 A3008 RMK AO2A VIS 0200 RWY08 VIS 0400 RWY08/26 VIS 0400 RWY09 VIS 0400 RWY09/27 SLP195 $
  • 280318Z 00000KT 0800 FZFG CLR M01/M02 A3008 RMK VIS 0200 RWY08 VIS 0400 RWY08/26 VIS 0400 RWY09 VIS 0400 RWY09/27 SLP195 $
  • 280255Z 00000KT 0800 FZFG VV001 M02/M03 A3007 RMK AO2A SLP192 T10211029 52006 $
  • 280235Z 00000KT 0800 FZFG VV001 M02/M02 A3007 RMK AO2A SLP192 $
  • 280155Z 00000KT 0800 FZFG VV001 M02/M03 A3007 RMK AO2A SLP192 T10181028 $
  • 280110Z 00000KT 0800 FZFG CLR M01/M02 A3006 RMK AO2A SLP189 $
  • 280055Z 00000KT 0600 FZFG CLR M01/M01 A3006 RMK AO2A SLP189 T10061013 $

TAF AMD TAF ETAR
Valide du 28 à 03h jusqu'au 29 à 08h UTC


280350Z 2803/2908 VRB03KT 5000 BR SKC QNH3001INS
TEMPO 2803/2808 0800 FZFG
BECMG 2808/2809 04006KT 5000 BR OVC015 620153 QNH3006INS
BECMG 2812/2813 VRB03KT 9999 NSW SCT030 QNH3016INS
BECMG 2823/2824 VRB03KT 3200 BR SCT030 QNH3012INS
TEMPO 2902/2908 0800 FZFG TX10/2814Z TNM02/2803Z



MET'MAP, la Météo Aéronautique d'un coup d'oeil ! - Copyright ORBIFLY Décembre 2007 - Disclaimer

ORBIFLY MET'MAP TEAM :

Programmation & Développement : Alexandra Zaïnal
Sur une idée originale de : Baudouin d'Aumeries
Soutien technique & logistique : Manuel Goepfert
Assistance : Marc-Olivier Méhu




SOURCES & CREDITS :

   NOAA